sensor_id;sensor_type;location;lat;lon;timestamp;P1;durP1;ratioP1;P2;durP2;ratioP2
61696;SDS011;47610;52.252;20.922;2022-11-20T00:01:34;40.40;;;19.70;;
61696;SDS011;47610;52.252;20.922;2022-11-20T00:06:56;34.60;;;17.60;;
61696;SDS011;47610;52.252;20.922;2022-11-20T00:12:18;33.70;;;17.40;;
61696;SDS011;47610;52.252;20.922;2022-11-20T00:17:42;33.40;;;17.50;;
61696;SDS011;47610;52.252;20.922;2022-11-20T00:23:05;46.60;;;21.90;;
61696;SDS011;47610;52.252;20.922;2022-11-20T00:28:27;40.70;;;19.30;;
61696;SDS011;47610;52.252;20.922;2022-11-20T00:33:51;34.10;;;16.10;;
61696;SDS011;47610;52.252;20.922;2022-11-20T00:39:14;39.80;;;19.90;;
61696;SDS011;47610;52.252;20.922;2022-11-20T00:44:36;49.40;;;24.50;;
61696;SDS011;47610;52.252;20.922;2022-11-20T00:49:58;51.90;;;22.70;;
61696;SDS011;47610;52.252;20.922;2022-11-20T00:55:21;46.10;;;20.90;;
61696;SDS011;47610;52.252;20.922;2022-11-20T01:00:43;47.70;;;22.10;;
61696;SDS011;47610;52.252;20.922;2022-11-20T01:06:07;43.30;;;20.20;;
61696;SDS011;47610;52.252;20.922;2022-11-20T01:11:33;38.70;;;17.50;;
61696;SDS011;47610;52.252;20.922;2022-11-20T01:16:56;41.80;;;19.60;;
61696;SDS011;47610;52.252;20.922;2022-11-20T01:22:19;39.70;;;19.00;;
61696;SDS011;47610;52.252;20.922;2022-11-20T01:27:41;45.30;;;19.50;;
61696;SDS011;47610;52.252;20.922;2022-11-20T01:33:03;38.30;;;17.10;;
61696;SDS011;47610;52.252;20.922;2022-11-20T01:38:25;41.10;;;19.40;;
61696;SDS011;47610;52.252;20.922;2022-11-20T01:43:47;41.80;;;17.20;;
61696;SDS011;47610;52.252;20.922;2022-11-20T01:49:10;31.20;;;14.70;;
61696;SDS011;47610;52.252;20.922;2022-11-20T01:54:40;37.80;;;17.20;;
61696;SDS011;47610;52.252;20.922;2022-11-20T02:00:10;40.10;;;19.00;;
61696;SDS011;47610;52.252;20.922;2022-11-20T02:05:38;41.30;;;19.30;;
61696;SDS011;47610;52.252;20.922;2022-11-20T02:11:05;36.00;;;17.50;;
61696;SDS011;47610;52.252;20.922;2022-11-20T02:16:28;36.00;;;17.50;;
61696;SDS011;47610;52.252;20.922;2022-11-20T02:21:56;42.90;;;18.70;;
61696;SDS011;47610;52.252;20.922;2022-11-20T02:27:26;40.10;;;18.40;;
61696;SDS011;47610;52.252;20.922;2022-11-20T02:32:50;40.80;;;18.70;;
61696;SDS011;47610;52.252;20.922;2022-11-20T02:38:12;34.20;;;17.20;;
61696;SDS011;47610;52.252;20.922;2022-11-20T02:43:35;47.40;;;20.10;;
61696;SDS011;47610;52.252;20.922;2022-11-20T02:48:57;39.70;;;18.30;;
61696;SDS011;47610;52.252;20.922;2022-11-20T02:54:20;43.30;;;20.20;;
61696;SDS011;47610;52.252;20.922;2022-11-20T02:59:43;45.10;;;18.20;;
61696;SDS011;47610;52.252;20.922;2022-11-20T03:05:06;44.00;;;19.30;;
61696;SDS011;47610;52.252;20.922;2022-11-20T03:10:29;39.30;;;18.50;;
61696;SDS011;47610;52.252;20.922;2022-11-20T03:15:53;36.40;;;17.00;;
61696;SDS011;47610;52.252;20.922;2022-11-20T03:21:15;37.80;;;19.00;;
61696;SDS011;47610;52.252;20.922;2022-11-20T03:26:38;35.70;;;18.10;;
61696;SDS011;47610;52.252;20.922;2022-11-20T03:32:01;36.00;;;16.60;;
61696;SDS011;47610;52.252;20.922;2022-11-20T03:37:23;52.70;;;21.50;;
61696;SDS011;47610;52.252;20.922;2022-11-20T03:42:45;33.10;;;15.00;;
61696;SDS011;47610;52.252;20.922;2022-11-20T03:48:07;29.20;;;15.00;;
61696;SDS011;47610;52.252;20.922;2022-11-20T03:53:29;42.80;;;18.00;;
61696;SDS011;47610;52.252;20.922;2022-11-20T03:58:52;43.50;;;19.50;;
61696;SDS011;47610;52.252;20.922;2022-11-20T04:04:14;31.00;;;14.90;;
61696;SDS011;47610;52.252;20.922;2022-11-20T04:09:37;28.90;;;14.50;;
61696;SDS011;47610;52.252;20.922;2022-11-20T04:15:00;38.10;;;17.20;;
61696;SDS011;47610;52.252;20.922;2022-11-20T04:20:22;38.50;;;18.20;;
61696;SDS011;47610;52.252;20.922;2022-11-20T04:25:45;43.00;;;17.90;;
61696;SDS011;47610;52.252;20.922;2022-11-20T04:31:08;45.40;;;19.00;;
61696;SDS011;47610;52.252;20.922;2022-11-20T04:41:53;43.60;;;20.20;;
61696;SDS011;47610;52.252;20.922;2022-11-20T04:47:16;36.40;;;15.00;;
61696;SDS011;47610;52.252;20.922;2022-11-20T04:52:38;41.00;;;18.20;;
61696;SDS011;47610;52.252;20.922;2022-11-20T04:58:01;34.80;;;17.00;;
61696;SDS011;47610;52.252;20.922;2022-11-20T05:03:24;39.90;;;17.80;;
61696;SDS011;47610;52.252;20.922;2022-11-20T05:08:47;41.60;;;18.40;;
61696;SDS011;47610;52.252;20.922;2022-11-20T05:14:10;37.40;;;17.60;;
61696;SDS011;47610;52.252;20.922;2022-11-20T05:19:33;36.80;;;18.60;;
61696;SDS011;47610;52.252;20.922;2022-11-20T05:24:55;37.30;;;18.00;;
61696;SDS011;47610;52.252;20.922;2022-11-20T05:30:18;26.40;;;13.90;;
61696;SDS011;47610;52.252;20.922;2022-11-20T05:35:41;49.20;;;18.30;;
61696;SDS011;47610;52.252;20.922;2022-11-20T05:41:07;37.20;;;17.90;;
61696;SDS011;47610;52.252;20.922;2022-11-20T05:46:31;37.90;;;15.90;;
61696;SDS011;47610;52.252;20.922;2022-11-20T05:51:54;42.90;;;18.70;;
61696;SDS011;47610;52.252;20.922;2022-11-20T05:57:17;35.60;;;17.10;;
61696;SDS011;47610;52.252;20.922;2022-11-20T06:02:39;28.80;;;15.60;;
61696;SDS011;47610;52.252;20.922;2022-11-20T06:08:02;32.80;;;15.20;;
61696;SDS011;47610;52.252;20.922;2022-11-20T06:13:25;25.80;;;12.20;;
61696;SDS011;47610;52.252;20.922;2022-11-20T06:18:47;34.10;;;15.70;;
61696;SDS011;47610;52.252;20.922;2022-11-20T06:24:11;40.40;;;17.80;;
61696;SDS011;47610;52.252;20.922;2022-11-20T06:29:35;35.00;;;16.50;;
61696;SDS011;47610;52.252;20.922;2022-11-20T06:34:57;32.60;;;15.40;;
61696;SDS011;47610;52.252;20.922;2022-11-20T06:40:19;33.70;;;16.00;;
61696;SDS011;47610;52.252;20.922;2022-11-20T06:45:41;26.80;;;13.50;;
61696;SDS011;47610;52.252;20.922;2022-11-20T06:51:04;32.60;;;16.00;;
61696;SDS011;47610;52.252;20.922;2022-11-20T06:56:28;35.90;;;14.60;;
61696;SDS011;47610;52.252;20.922;2022-11-20T07:01:51;41.80;;;18.60;;
61696;SDS011;47610;52.252;20.922;2022-11-20T07:07:13;34.70;;;15.60;;
61696;SDS011;47610;52.252;20.922;2022-11-20T07:12:36;41.90;;;18.20;;
61696;SDS011;47610;52.252;20.922;2022-11-20T07:18:00;37.90;;;17.20;;
61696;SDS011;47610;52.252;20.922;2022-11-20T07:27:56;37.00;;;16.90;;
61696;SDS011;47610;52.252;20.922;2022-11-20T07:33:19;40.20;;;18.80;;
61696;SDS011;47610;52.252;20.922;2022-11-20T07:38:42;39.00;;;19.90;;
61696;SDS011;47610;52.252;20.922;2022-11-20T07:44:04;39.70;;;17.20;;
61696;SDS011;47610;52.252;20.922;2022-11-20T07:49:26;43.10;;;18.50;;
61696;SDS011;47610;52.252;20.922;2022-11-20T07:54:49;39.00;;;18.60;;
61696;SDS011;47610;52.252;20.922;2022-11-20T08:00:13;37.70;;;18.20;;
61696;SDS011;47610;52.252;20.922;2022-11-20T08:05:37;44.20;;;20.20;;
61696;SDS011;47610;52.252;20.922;2022-11-20T08:10:59;37.50;;;18.50;;
61696;SDS011;47610;52.252;20.922;2022-11-20T08:16:21;44.60;;;21.30;;
61696;SDS011;47610;52.252;20.922;2022-11-20T08:21:43;46.50;;;25.20;;
61696;SDS011;47610;52.252;20.922;2022-11-20T08:27:06;42.60;;;23.90;;
61696;SDS011;47610;52.252;20.922;2022-11-20T08:32:29;41.30;;;23.60;;
61696;SDS011;47610;52.252;20.922;2022-11-20T08:37:52;44.60;;;25.00;;
61696;SDS011;47610;52.252;20.922;2022-11-20T08:43:16;43.80;;;22.20;;
61696;SDS011;47610;52.252;20.922;2022-11-20T08:48:38;45.20;;;24.10;;
61696;SDS011;47610;52.252;20.922;2022-11-20T08:54:00;45.80;;;24.00;;
61696;SDS011;47610;52.252;20.922;2022-11-20T08:59:23;38.30;;;21.80;;
61696;SDS011;47610;52.252;20.922;2022-11-20T09:04:46;44.90;;;23.90;;
61696;SDS011;47610;52.252;20.922;2022-11-20T09:10:08;37.00;;;23.50;;
61696;SDS011;47610;52.252;20.922;2022-11-20T09:15:33;44.40;;;23.20;;
61696;SDS011;47610;52.252;20.922;2022-11-20T09:20:58;38.60;;;22.20;;
61696;SDS011;47610;52.252;20.922;2022-11-20T09:26:23;37.30;;;22.00;;
61696;SDS011;47610;52.252;20.922;2022-11-20T09:31:46;45.70;;;23.10;;
61696;SDS011;47610;52.252;20.922;2022-11-20T09:37:09;39.80;;;23.50;;
61696;SDS011;47610;52.252;20.922;2022-11-20T09:42:35;42.70;;;22.00;;
61696;SDS011;47610;52.252;20.922;2022-11-20T09:48:12;37.60;;;22.00;;
61696;SDS011;47610;52.252;20.922;2022-11-20T09:53:55;42.80;;;23.30;;
61696;SDS011;47610;52.252;20.922;2022-11-20T09:59:29;42.00;;;22.30;;
61696;SDS011;47610;52.252;20.922;2022-11-20T10:04:59;45.90;;;23.60;;
61696;SDS011;47610;52.252;20.922;2022-11-20T10:10:33;44.60;;;25.30;;
61696;SDS011;47610;52.252;20.922;2022-11-20T10:16:07;41.10;;;23.40;;
61696;SDS011;47610;52.252;20.922;2022-11-20T10:21:46;42.30;;;23.30;;
61696;SDS011;47610;52.252;20.922;2022-11-20T10:27:37;40.60;;;22.40;;
61696;SDS011;47610;52.252;20.922;2022-11-20T10:33:11;45.60;;;24.00;;
61696;SDS011;47610;52.252;20.922;2022-11-20T10:38:38;38.30;;;21.40;;
61696;SDS011;47610;52.252;20.922;2022-11-20T10:44:09;44.10;;;21.20;;
61696;SDS011;47610;52.252;20.922;2022-11-20T10:49:34;39.00;;;21.00;;
61696;SDS011;47610;52.252;20.922;2022-11-20T10:55:02;35.80;;;20.10;;
61696;SDS011;47610;52.252;20.922;2022-11-20T11:00:32;33.80;;;18.40;;
61696;SDS011;47610;52.252;20.922;2022-11-20T11:05:56;35.10;;;18.40;;
61696;SDS011;47610;52.252;20.922;2022-11-20T11:11:27;38.80;;;20.90;;
61696;SDS011;47610;52.252;20.922;2022-11-20T11:16:53;41.30;;;21.20;;
61696;SDS011;47610;52.252;20.922;2022-11-20T11:22:17;36.70;;;18.10;;
61696;SDS011;47610;52.252;20.922;2022-11-20T11:27:47;39.40;;;19.90;;
61696;SDS011;47610;52.252;20.922;2022-11-20T11:33:11;30.10;;;15.40;;
61696;SDS011;47610;52.252;20.922;2022-11-20T11:38:43;37.10;;;18.90;;
61696;SDS011;47610;52.252;20.922;2022-11-20T11:44:12;31.50;;;17.50;;
61696;SDS011;47610;52.252;20.922;2022-11-20T11:49:39;37.10;;;18.30;;
61696;SDS011;47610;52.252;20.922;2022-11-20T11:55:02;31.40;;;16.80;;
61696;SDS011;47610;52.252;20.922;2022-11-20T12:00:32;31.30;;;16.90;;
61696;SDS011;47610;52.252;20.922;2022-11-20T12:05:58;30.40;;;16.50;;
61696;SDS011;47610;52.252;20.922;2022-11-20T12:11:29;33.50;;;16.40;;
61696;SDS011;47610;52.252;20.922;2022-11-20T12:16:58;33.10;;;17.90;;
61696;SDS011;47610;52.252;20.922;2022-11-20T12:22:24;36.00;;;18.10;;
61696;SDS011;47610;52.252;20.922;2022-11-20T12:28:08;34.40;;;17.40;;
61696;SDS011;47610;52.252;20.922;2022-11-20T12:33:53;31.10;;;15.50;;
61696;SDS011;47610;52.252;20.922;2022-11-20T12:39:29;29.50;;;16.00;;
61696;SDS011;47610;52.252;20.922;2022-11-20T12:45:10;27.70;;;14.60;;
61696;SDS011;47610;52.252;20.922;2022-11-20T12:50:54;32.30;;;16.90;;
61696;SDS011;47610;52.252;20.922;2022-11-20T12:56:31;29.30;;;16.60;;
61696;SDS011;47610;52.252;20.922;2022-11-20T13:02:09;37.20;;;17.40;;
61696;SDS011;47610;52.252;20.922;2022-11-20T13:07:43;31.50;;;14.80;;
61696;SDS011;47610;52.252;20.922;2022-11-20T13:13:10;38.30;;;16.90;;
61696;SDS011;47610;52.252;20.922;2022-11-20T13:18:39;33.10;;;18.10;;
61696;SDS011;47610;52.252;20.922;2022-11-20T13:29:45;34.90;;;16.60;;
61696;SDS011;47610;52.252;20.922;2022-11-20T13:35:27;34.20;;;15.70;;
61696;SDS011;47610;52.252;20.922;2022-11-20T13:40:54;35.70;;;17.60;;
61696;SDS011;47610;52.252;20.922;2022-11-20T13:46:18;30.10;;;16.50;;
61696;SDS011;47610;52.252;20.922;2022-11-20T13:51:42;31.50;;;15.30;;
61696;SDS011;47610;52.252;20.922;2022-11-20T13:57:12;30.10;;;15.70;;
61696;SDS011;47610;52.252;20.922;2022-11-20T14:03:09;38.90;;;15.90;;
61696;SDS011;47610;52.252;20.922;2022-11-20T14:08:39;33.70;;;13.80;;
61696;SDS011;47610;52.252;20.922;2022-11-20T14:19:26;37.20;;;17.30;;
61696;SDS011;47610;52.252;20.922;2022-11-20T14:25:00;38.20;;;19.80;;
61696;SDS011;47610;52.252;20.922;2022-11-20T14:30:26;46.00;;;22.30;;
61696;SDS011;47610;52.252;20.922;2022-11-20T14:35:56;43.30;;;21.60;;
61696;SDS011;47610;52.252;20.922;2022-11-20T14:41:19;39.50;;;19.80;;
61696;SDS011;47610;52.252;20.922;2022-11-20T14:46:42;40.20;;;21.00;;
61696;SDS011;47610;52.252;20.922;2022-11-20T14:52:11;39.90;;;20.50;;
61696;SDS011;47610;52.252;20.922;2022-11-20T14:57:36;42.30;;;21.60;;
61696;SDS011;47610;52.252;20.922;2022-11-20T15:02:58;39.20;;;19.70;;
61696;SDS011;47610;52.252;20.922;2022-11-20T15:08:21;48.50;;;22.40;;
61696;SDS011;47610;52.252;20.922;2022-11-20T15:13:43;40.30;;;21.30;;
61696;SDS011;47610;52.252;20.922;2022-11-20T15:19:05;47.30;;;22.50;;
61696;SDS011;47610;52.252;20.922;2022-11-20T15:24:39;46.30;;;22.10;;
61696;SDS011;47610;52.252;20.922;2022-11-20T15:30:01;39.40;;;18.80;;
61696;SDS011;47610;52.252;20.922;2022-11-20T15:35:32;38.10;;;18.80;;
61696;SDS011;47610;52.252;20.922;2022-11-20T15:40:54;34.50;;;18.30;;
61696;SDS011;47610;52.252;20.922;2022-11-20T15:46:19;37.70;;;19.50;;
61696;SDS011;47610;52.252;20.922;2022-11-20T15:51:48;43.50;;;21.90;;
61696;SDS011;47610;52.252;20.922;2022-11-20T15:57:10;42.50;;;21.10;;
61696;SDS011;47610;52.252;20.922;2022-11-20T16:02:33;41.70;;;20.00;;
61696;SDS011;47610;52.252;20.922;2022-11-20T16:07:55;40.40;;;20.10;;
61696;SDS011;47610;52.252;20.922;2022-11-20T16:13:17;32.70;;;17.20;;
61696;SDS011;47610;52.252;20.922;2022-11-20T16:18:39;41.50;;;21.30;;
61696;SDS011;47610;52.252;20.922;2022-11-20T16:24:02;37.30;;;18.70;;
61696;SDS011;47610;52.252;20.922;2022-11-20T16:29:26;43.10;;;20.50;;
61696;SDS011;47610;52.252;20.922;2022-11-20T16:34:47;38.70;;;20.30;;
61696;SDS011;47610;52.252;20.922;2022-11-20T16:40:12;43.00;;;20.50;;
61696;SDS011;47610;52.252;20.922;2022-11-20T16:45:34;30.60;;;16.20;;
61696;SDS011;47610;52.252;20.922;2022-11-20T16:50:59;40.40;;;20.40;;
61696;SDS011;47610;52.252;20.922;2022-11-20T16:56:22;32.40;;;15.00;;
61696;SDS011;47610;52.252;20.922;2022-11-20T17:01:46;30.60;;;15.90;;
61696;SDS011;47610;52.252;20.922;2022-11-20T17:07:07;32.20;;;16.80;;
61696;SDS011;47610;52.252;20.922;2022-11-20T17:12:30;36.40;;;17.80;;
61696;SDS011;47610;52.252;20.922;2022-11-20T17:17:52;38.30;;;19.90;;
61696;SDS011;47610;52.252;20.922;2022-11-20T17:23:14;33.50;;;16.30;;
61696;SDS011;47610;52.252;20.922;2022-11-20T17:28:37;34.70;;;17.20;;
61696;SDS011;47610;52.252;20.922;2022-11-20T17:33:59;35.30;;;16.50;;
61696;SDS011;47610;52.252;20.922;2022-11-20T17:39:22;32.30;;;17.20;;
61696;SDS011;47610;52.252;20.922;2022-11-20T17:44:44;42.70;;;20.80;;
61696;SDS011;47610;52.252;20.922;2022-11-20T17:50:07;42.60;;;20.30;;
61696;SDS011;47610;52.252;20.922;2022-11-20T17:55:30;42.30;;;20.10;;
61696;SDS011;47610;52.252;20.922;2022-11-20T18:00:52;41.30;;;18.40;;
61696;SDS011;47610;52.252;20.922;2022-11-20T18:06:15;28.60;;;13.30;;
61696;SDS011;47610;52.252;20.922;2022-11-20T18:11:38;31.40;;;15.40;;
61696;SDS011;47610;52.252;20.922;2022-11-20T18:17:01;34.10;;;15.60;;
61696;SDS011;47610;52.252;20.922;2022-11-20T18:22:25;32.30;;;15.90;;
61696;SDS011;47610;52.252;20.922;2022-11-20T18:27:47;33.50;;;15.60;;
61696;SDS011;47610;52.252;20.922;2022-11-20T18:33:09;32.30;;;16.80;;
61696;SDS011;47610;52.252;20.922;2022-11-20T18:38:31;34.80;;;16.60;;
61696;SDS011;47610;52.252;20.922;2022-11-20T18:43:53;38.20;;;16.30;;
61696;SDS011;47610;52.252;20.922;2022-11-20T18:49:16;35.80;;;17.60;;
61696;SDS011;47610;52.252;20.922;2022-11-20T18:54:38;36.60;;;16.50;;
61696;SDS011;47610;52.252;20.922;2022-11-20T19:00:00;48.20;;;21.80;;
61696;SDS011;47610;52.252;20.922;2022-11-20T19:05:23;39.60;;;18.20;;
61696;SDS011;47610;52.252;20.922;2022-11-20T19:10:45;37.50;;;17.20;;
61696;SDS011;47610;52.252;20.922;2022-11-20T19:16:08;37.90;;;18.40;;
61696;SDS011;47610;52.252;20.922;2022-11-20T19:21:33;49.90;;;22.80;;
61696;SDS011;47610;52.252;20.922;2022-11-20T19:26:56;48.50;;;21.10;;
61696;SDS011;47610;52.252;20.922;2022-11-20T19:32:18;40.90;;;19.30;;
61696;SDS011;47610;52.252;20.922;2022-11-20T19:37:40;38.60;;;17.50;;
61696;SDS011;47610;52.252;20.922;2022-11-20T19:43:03;50.30;;;22.70;;
61696;SDS011;47610;52.252;20.922;2022-11-20T19:48:26;43.40;;;21.70;;
61696;SDS011;47610;52.252;20.922;2022-11-20T19:53:51;53.90;;;25.90;;
61696;SDS011;47610;52.252;20.922;2022-11-20T19:59:16;44.40;;;21.20;;
61696;SDS011;47610;52.252;20.922;2022-11-20T20:04:38;41.80;;;18.70;;
61696;SDS011;47610;52.252;20.922;2022-11-20T20:10:00;39.10;;;18.80;;
61696;SDS011;47610;52.252;20.922;2022-11-20T20:15:23;35.60;;;17.50;;
61696;SDS011;47610;52.252;20.922;2022-11-20T20:20:45;40.70;;;18.70;;
61696;SDS011;47610;52.252;20.922;2022-11-20T20:26:10;36.50;;;17.50;;
61696;SDS011;47610;52.252;20.922;2022-11-20T20:31:32;49.30;;;21.20;;
61696;SDS011;47610;52.252;20.922;2022-11-20T20:36:55;45.00;;;20.20;;
61696;SDS011;47610;52.252;20.922;2022-11-20T20:42:17;44.50;;;21.80;;
61696;SDS011;47610;52.252;20.922;2022-11-20T20:47:39;41.80;;;20.20;;
61696;SDS011;47610;52.252;20.922;2022-11-20T20:53:02;47.10;;;21.20;;
61696;SDS011;47610;52.252;20.922;2022-11-20T20:58:25;45.60;;;21.20;;
61696;SDS011;47610;52.252;20.922;2022-11-20T21:03:48;53.40;;;23.80;;
61696;SDS011;47610;52.252;20.922;2022-11-20T21:09:11;53.10;;;25.70;;
61696;SDS011;47610;52.252;20.922;2022-11-20T21:14:33;60.10;;;27.10;;
61696;SDS011;47610;52.252;20.922;2022-11-20T21:19:58;49.60;;;22.90;;
61696;SDS011;47610;52.252;20.922;2022-11-20T21:25:21;46.30;;;20.90;;
61696;SDS011;47610;52.252;20.922;2022-11-20T21:30:44;51.10;;;24.80;;
61696;SDS011;47610;52.252;20.922;2022-11-20T21:36:09;51.60;;;23.40;;
61696;SDS011;47610;52.252;20.922;2022-11-20T21:41:32;49.50;;;22.40;;
61696;SDS011;47610;52.252;20.922;2022-11-20T21:46:55;51.40;;;23.70;;
61696;SDS011;47610;52.252;20.922;2022-11-20T21:52:18;56.10;;;25.80;;
61696;SDS011;47610;52.252;20.922;2022-11-20T21:57:40;68.70;;;30.80;;
61696;SDS011;47610;52.252;20.922;2022-11-20T22:03:02;57.80;;;26.50;;
61696;SDS011;47610;52.252;20.922;2022-11-20T22:08:24;60.90;;;30.30;;
61696;SDS011;47610;52.252;20.922;2022-11-20T22:13:48;61.00;;;27.30;;
61696;SDS011;47610;52.252;20.922;2022-11-20T22:19:13;51.40;;;24.20;;
61696;SDS011;47610;52.252;20.922;2022-11-20T22:24:37;55.40;;;24.80;;
61696;SDS011;47610;52.252;20.922;2022-11-20T22:30:00;66.10;;;26.50;;
61696;SDS011;47610;52.252;20.922;2022-11-20T22:35:22;53.60;;;25.70;;
61696;SDS011;47610;52.252;20.922;2022-11-20T22:40:44;67.90;;;28.90;;
61696;SDS011;47610;52.252;20.922;2022-11-20T22:46:07;72.50;;;32.70;;
61696;SDS011;47610;52.252;20.922;2022-11-20T22:51:33;68.40;;;29.30;;
61696;SDS011;47610;52.252;20.922;2022-11-20T22:56:57;58.20;;;26.40;;
61696;SDS011;47610;52.252;20.922;2022-11-20T23:02:19;60.40;;;26.70;;
61696;SDS011;47610;52.252;20.922;2022-11-20T23:07:41;57.60;;;26.20;;
61696;SDS011;47610;52.252;20.922;2022-11-20T23:13:04;55.30;;;25.50;;
61696;SDS011;47610;52.252;20.922;2022-11-20T23:18:28;63.90;;;29.00;;
61696;SDS011;47610;52.252;20.922;2022-11-20T23:23:52;69.30;;;30.30;;
61696;SDS011;47610;52.252;20.922;2022-11-20T23:29:18;68.10;;;31.30;;
61696;SDS011;47610;52.252;20.922;2022-11-20T23:34:40;62.60;;;28.40;;
61696;SDS011;47610;52.252;20.922;2022-11-20T23:40:05;70.90;;;31.20;;
61696;SDS011;47610;52.252;20.922;2022-11-20T23:45:31;71.20;;;30.30;;
61696;SDS011;47610;52.252;20.922;2022-11-20T23:50:58;80.30;;;34.70;;
61696;SDS011;47610;52.252;20.922;2022-11-20T23:56:21;64.00;;;28.50;;
